Time;durP1;ratioP1;P1;durP2;ratioP2;P2;SDS_P1;SDS_P2;PMS_P1;PMS_P2;Temp;Humidity;BMP_temperature;BMP_pressure;BME280_temperature;BME280_humidity;BME280_pressure;Samples;Min_cycle;Max_cycle;Signal;HPM_P1;HPM_P2
2022/04/03 00:00:46;;;;;;;11.95;10.05;;;15.90;61.50;;;;;;5002950;28;20038;-67
2022/04/03 00:03:12;;;;;;;12.02;9.77;;;15.90;61.40;;;;;;5002996;28;20405;-66
2022/04/03 00:05:39;;;;;;;12.70;10.27;;;15.90;61.60;;;;;;5002975;28;20030;-67
2022/04/03 00:08:06;;;;;;;13.70;9.68;;;15.90;61.50;;;;;;5003019;28;20027;-67
2022/04/03 00:10:33;;;;;;;13.23;10.57;;;15.90;61.50;;;;;;5002861;28;20133;-66
2022/04/03 00:12:58;;;;;;;13.00;9.98;;;15.90;61.60;;;;;;5002845;28;20037;-67
2022/04/03 00:15:24;;;;;;;15.18;10.60;;;15.90;61.60;;;;;;5002801;28;20234;-67
2022/04/03 00:17:50;;;;;;;12.52;10.63;;;15.90;61.50;;;;;;5002723;28;20033;-67
2022/04/03 00:20:16;;;;;;;12.38;10.43;;;15.90;61.10;;;;;;5002706;28;20030;-67
2022/04/03 00:22:47;;;;;;;11.55;9.60;;;15.90;61.20;;;;;;5002728;28;20301;-66
2022/04/03 00:25:14;;;;;;;11.30;9.82;;;15.90;61.20;;;;;;5002719;28;20030;-68
2022/04/03 00:27:40;;;;;;;12.85;10.45;;;15.90;61.40;;;;;;5002923;28;20088;-66
2022/04/03 00:30:07;;;;;;;11.02;9.15;;;15.90;61.20;;;;;;5002596;28;20107;-67
2022/04/03 00:32:34;;;;;;;10.77;9.50;;;15.90;61.20;;;;;;5002575;28;20030;-66
2022/04/03 00:35:00;;;;;;;13.80;10.02;;;15.90;61.40;;;;;;5002469;28;20425;-67
2022/04/03 00:37:26;;;;;;;13.07;10.55;;;15.90;61.20;;;;;;5002486;28;20023;-67
2022/04/03 00:39:51;;;;;;;11.77;9.82;;;15.90;61.40;;;;;;5001451;28;20257;-67
2022/04/03 00:42:18;;;;;;;12.38;9.88;;;15.90;61.50;;;;;;5002370;28;20026;-66
2022/04/03 00:44:44;;;;;;;13.00;10.15;;;15.90;61.60;;;;;;5002725;28;20045;-66
2022/04/03 00:47:12;;;;;;;11.25;9.60;;;15.90;61.50;;;;;;5001037;28;20521;-66
2022/04/03 00:49:38;;;;;;;13.65;10.38;;;15.90;61.60;;;;;;5000998;28;20033;-66
2022/04/03 00:52:05;;;;;;;10.73;9.43;;;15.90;61.60;;;;;;5002227;28;20266;-68
2022/04/03 00:54:31;;;;;;;12.32;10.13;;;15.90;61.50;;;;;;5002070;28;20034;-67
2022/04/03 00:56:56;;;;;;;12.13;10.18;;;15.90;61.40;;;;;;5002128;28;20050;-67
2022/04/03 00:59:22;;;;;;;11.85;9.38;;;15.90;60.90;;;;;;5001992;28;20352;-67
2022/04/03 01:01:48;;;;;;;12.20;10.20;;;15.90;60.90;;;;;;5000695;28;20053;-67
2022/04/03 01:04:14;;;;;;;12.23;9.55;;;15.90;61.10;;;;;;5001992;28;20049;-67
2022/04/03 01:06:40;;;;;;;13.13;9.65;;;15.90;60.80;;;;;;5001874;28;20325;-67
2022/04/03 01:09:06;;;;;;;12.80;10.18;;;15.90;61.10;;;;;;5001903;28;20042;-66
2022/04/03 01:11:32;;;;;;;12.32;9.90;;;15.90;61.20;;;;;;5001794;28;20030;-66
2022/04/03 01:13:58;;;;;;;12.65;9.63;;;15.90;60.80;;;;;;5001604;28;20046;-66
2022/04/03 01:16:24;;;;;;;10.70;9.05;;;15.90;61.30;;;;;;5001407;28;20061;-67
2022/04/03 01:18:50;;;;;;;11.45;9.90;;;15.90;61.20;;;;;;5001630;28;20108;-66
2022/04/03 01:21:17;;;;;;;11.30;9.68;;;15.80;61.10;;;;;;5001673;28;20069;-66
2022/04/03 01:23:43;;;;;;;12.32;10.70;;;15.90;60.80;;;;;;5001889;28;20021;-66
2022/04/03 01:26:09;;;;;;;12.07;9.85;;;15.90;61.40;;;;;;5001504;28;20214;-67
2022/04/03 01:28:36;;;;;;;13.77;10.43;;;15.90;61.30;;;;;;5001502;28;20044;-66
2022/04/03 01:31:03;;;;;;;12.68;10.63;;;15.90;61.40;;;;;;5001430;28;20229;-66
2022/04/03 01:33:28;;;;;;;11.93;10.10;;;15.80;61.40;;;;;;5001313;28;20125;-67
2022/04/03 01:35:54;;;;;;;11.35;9.93;;;15.80;61.00;;;;;;5001383;28;20034;-67
2022/04/03 01:38:20;;;;;;;11.35;9.43;;;15.80;60.80;;;;;;5001227;28;20210;-66
2022/04/03 01:40:46;;;;;;;11.10;9.40;;;15.80;60.80;;;;;;5001201;28;20123;-66
2022/04/03 01:43:11;;;;;;;12.38;9.77;;;15.80;60.70;;;;;;5001186;28;20022;-66
2022/04/03 01:45:38;;;;;;;12.35;9.82;;;15.80;61.00;;;;;;5001172;28;20062;-67
2022/04/03 01:48:05;;;;;;;12.45;10.07;;;15.80;60.90;;;;;;5001123;28;20015;-66
2022/04/03 01:50:31;;;;;;;12.55;10.20;;;15.90;60.80;;;;;;5001009;28;20069;-66
2022/04/03 01:52:57;;;;;;;11.63;10.02;;;15.80;60.90;;;;;;5000893;28;20034;-67
2022/04/03 01:55:24;;;;;;;12.68;10.25;;;15.80;61.20;;;;;;5000941;28;20023;-66
2022/04/03 01:57:50;;;;;;;13.30;10.77;;;15.80;61.20;;;;;;5000935;28;20030;-68
2022/04/03 02:00:16;;;;;;;13.55;10.10;;;15.90;61.30;;;;;;5000858;28;20030;-66
2022/04/03 02:02:42;;;;;;;12.48;10.43;;;15.90;61.20;;;;;;5000809;28;20032;-67
2022/04/03 02:05:08;;;;;;;12.68;10.05;;;15.90;61.10;;;;;;5000762;28;20026;-67
2022/04/03 02:20:56;;;;;;;11.95;9.95;;;15.80;60.70;;;;;;5112955;27;1365684;-67
2022/04/03 02:23:22;;;;;;;12.13;10.15;;;15.80;61.20;;;;;;5138666;28;20192;-67
2022/04/03 02:25:49;;;;;;;12.55;10.70;;;15.80;61.10;;;;;;5138595;28;20068;-68
2022/04/03 02:28:16;;;;;;;11.05;9.85;;;15.80;61.00;;;;;;5138420;28;20034;-67
2022/04/03 02:30:42;;;;;;;12.98;9.90;;;15.80;61.40;;;;;;5138405;28;20023;-67
2022/04/03 02:33:08;;;;;;;12.38;10.00;;;15.70;61.40;;;;;;5138335;28;20015;-68
2022/04/03 02:35:34;;;;;;;11.48;9.73;;;15.70;61.60;;;;;;5138354;28;20318;-68
2022/04/03 02:38:00;;;;;;;12.85;10.85;;;15.70;61.60;;;;;;5138332;28;20064;-68
2022/04/03 02:40:26;;;;;;;11.68;9.50;;;15.70;61.70;;;;;;5138254;28;20023;-67
2022/04/03 02:42:52;;;;;;;9.95;8.38;;;15.60;61.60;;;;;;5138291;28;20026;-67
2022/04/03 02:45:18;;;;;;;11.45;10.10;;;15.60;61.80;;;;;;5138141;28;20210;-67
2022/04/03 02:47:55;;;;;;;11.10;9.88;;;15.40;61.90;;;;;;5138091;28;20057;-68
2022/04/03 02:50:22;;;;;;;13.43;10.63;;;15.30;62.20;;;;;;5137965;28;20037;-66
2022/04/03 02:52:49;;;;;;;12.68;9.98;;;15.30;62.50;;;;;;5137984;28;20112;-67
2022/04/03 02:55:16;;;;;;;12.35;9.82;;;15.20;62.60;;;;;;5137995;28;20046;-68
2022/04/03 02:57:42;;;;;;;13.60;11.13;;;15.20;62.60;;;;;;5138058;28;20344;-67
2022/04/03 03:00:08;;;;;;;11.90;9.43;;;15.20;62.60;;;;;;5137856;28;20023;-67
2022/04/03 03:02:34;;;;;;;10.93;9.13;;;15.20;62.60;;;;;;5137818;28;20031;-67
2022/04/03 03:05:00;;;;;;;11.80;9.85;;;15.20;62.70;;;;;;5137790;28;20086;-67
2022/04/03 03:07:38;;;;;;;11.73;9.63;;;15.20;62.80;;;;;;5137736;28;20261;-67
2022/04/03 03:10:06;;;;;;;10.70;9.15;;;15.10;62.80;;;;;;5137601;28;20027;-67
2022/04/03 03:12:32;;;;;;;12.80;9.77;;;15.10;62.80;;;;;;5137642;28;20019;-67
2022/04/03 03:14:57;;;;;;;10.75;8.98;;;15.10;62.70;;;;;;5137578;28;20039;-67
2022/04/03 03:17:23;;;;;;;10.68;9.55;;;15.10;62.80;;;;;;5137667;28;20011;-67
2022/04/03 03:19:49;;;;;;;11.85;9.70;;;15.10;62.90;;;;;;5136080;28;20055;-68
2022/04/03 03:22:15;;;;;;;11.25;9.32;;;15.00;62.90;;;;;;5123367;28;20037;-67
2022/04/03 03:44:34;;;;;;;12.65;10.35;;;14.90;62.80;;;;;;5118355;27;20373;-66
2022/04/03 03:46:59;;;;;;;10.52;8.80;;;14.90;63.40;;;;;;5118077;28;20034;-67
2022/04/03 03:49:26;;;;;;;10.65;9.25;;;14.90;63.30;;;;;;5118091;28;20038;-65
2022/04/03 03:51:52;;;;;;;12.07;9.45;;;14.90;63.30;;;;;;5117950;28;20040;-66
2022/04/03 03:54:18;;;;;;;10.93;9.25;;;14.80;63.20;;;;;;5118020;28;20020;-66
2022/04/03 03:56:44;;;;;;;10.57;8.95;;;14.80;63.20;;;;;;5117941;28;20416;-66
2022/04/03 03:59:10;;;;;;;10.75;9.00;;;14.80;63.30;;;;;;5117884;28;20091;-66
2022/04/03 04:01:36;;;;;;;11.05;9.35;;;14.80;63.30;;;;;;5117910;28;20023;-66
2022/04/03 04:04:02;;;;;;;11.15;9.15;;;14.80;63.30;;;;;;5117816;28;20081;-66
2022/04/03 04:06:28;;;;;;;9.30;8.10;;;14.80;63.30;;;;;;5117861;28;20020;-66
2022/04/03 04:08:54;;;;;;;10.10;9.05;;;14.80;63.30;;;;;;5117695;28;20019;-66
2022/04/03 04:11:20;;;;;;;8.52;7.72;;;14.80;63.30;;;;;;5117738;28;20077;-66
2022/04/03 04:13:46;;;;;;;11.25;8.85;;;14.80;63.30;;;;;;5117614;28;20028;-66
2022/04/03 04:16:13;;;;;;;11.18;9.38;;;14.80;63.30;;;;;;5117524;28;20020;-66
2022/04/03 04:18:39;;;;;;;10.30;9.20;;;14.80;63.30;;;;;;5117615;28;20016;-67
2022/04/03 04:21:05;;;;;;;9.55;8.40;;;14.80;63.40;;;;;;5117543;28;20028;-66
2022/04/03 04:23:31;;;;;;;11.05;8.90;;;14.80;63.40;;;;;;5117333;28;20016;-66
2022/04/03 04:25:57;;;;;;;11.70;9.10;;;14.80;63.40;;;;;;5117458;28;20024;-65
2022/04/03 04:28:23;;;;;;;12.85;9.70;;;14.70;63.30;;;;;;5117342;28;20062;-66
2022/04/03 04:30:48;;;;;;;10.98;9.25;;;14.70;63.40;;;;;;5117378;28;20012;-66
2022/04/03 04:33:14;;;;;;;10.23;9.02;;;14.70;63.40;;;;;;5117396;28;20028;-67
2022/04/03 04:35:40;;;;;;;10.85;9.27;;;14.70;63.40;;;;;;5117180;28;20453;-66
2022/04/03 04:38:05;;;;;;;10.63;9.07;;;14.70;63.40;;;;;;5117155;28;20039;-66
2022/04/03 04:40:31;;;;;;;11.45;9.50;;;14.70;63.40;;;;;;5117021;28;20071;-66
2022/04/03 04:43:00;;;;;;;11.23;8.48;;;14.70;63.40;;;;;;5117016;28;20043;-65
2022/04/03 04:45:26;;;;;;;11.65;9.27;;;14.70;63.40;;;;;;5104060;28;20032;-66
2022/04/03 04:47:59;;;;;;;10.05;8.57;;;14.60;63.30;;;;;;5103393;28;20031;-66
2022/04/03 04:50:26;;;;;;;9.65;8.65;;;14.60;63.40;;;;;;5103352;28;20062;-66
2022/04/03 04:52:52;;;;;;;9.70;8.20;;;14.60;63.40;;;;;;5103136;28;20122;-67
2022/04/03 04:55:19;;;;;;;9.98;8.68;;;14.60;63.30;;;;;;5103250;28;20020;-67
2022/04/03 04:57:50;;;;;;;10.63;8.75;;;14.60;63.30;;;;;;5103222;28;20032;-66
2022/04/03 05:00:16;;;;;;;9.90;8.50;;;14.70;63.40;;;;;;5103181;28;20020;-65
2022/04/03 05:02:46;;;;;;;10.23;8.65;;;14.60;63.40;;;;;;5103027;28;20027;-66
2022/04/03 05:05:13;;;;;;;10.45;8.80;;;14.60;63.40;;;;;;5103002;28;20018;-66
2022/04/03 05:07:39;;;;;;;9.98;8.50;;;14.60;63.40;;;;;;5102962;28;20065;-66
2022/04/03 05:10:06;;;;;;;9.18;7.95;;;14.60;63.40;;;;;;5102941;28;20091;-66
2022/04/03 05:12:33;;;;;;;9.55;8.55;;;14.60;63.40;;;;;;5102724;28;20016;-66
2022/04/03 05:14:59;;;;;;;9.32;8.32;;;14.60;63.40;;;;;;5102885;28;20093;-66
2022/04/03 05:17:26;;;;;;;9.15;8.23;;;14.60;63.40;;;;;;5102869;28;20032;-66
2022/04/03 05:19:53;;;;;;;11.30;8.85;;;14.60;63.40;;;;;;5102648;28;20016;-66
2022/04/03 05:22:23;;;;;;;8.77;7.88;;;14.60;63.30;;;;;;5102745;28;20199;-66
2022/04/03 05:24:50;;;;;;;11.43;9.13;;;14.60;63.40;;;;;;5102644;28;20027;-67
2022/04/03 05:27:16;;;;;;;11.10;9.00;;;14.60;63.30;;;;;;5102649;28;20035;-67
2022/04/03 05:29:43;;;;;;;8.82;7.93;;;14.60;63.30;;;;;;5102440;28;20211;-66
2022/04/03 05:32:09;;;;;;;10.75;8.27;;;14.60;63.30;;;;;;5102444;28;20040;-67
2022/04/03 05:34:35;;;;;;;9.82;8.30;;;14.60;63.40;;;;;;5102452;28;20196;-66
2022/04/03 05:37:00;;;;;;;10.00;8.40;;;14.60;63.30;;;;;;5102349;28;20019;-67
2022/04/03 05:39:26;;;;;;;9.07;8.07;;;14.60;63.30;;;;;;5102351;28;20214;-66
2022/04/03 05:41:55;;;;;;;10.43;8.30;;;14.60;63.30;;;;;;5102177;28;20024;-66
2022/04/03 05:44:21;;;;;;;11.05;8.73;;;14.60;63.20;;;;;;5102078;28;20093;-66
2022/04/03 05:46:47;;;;;;;8.52;7.65;;;14.60;63.20;;;;;;5102253;28;20028;-66
2022/04/03 05:49:13;;;;;;;8.65;7.57;;;14.60;63.20;;;;;;5102030;28;20057;-66
2022/04/03 05:51:38;;;;;;;10.73;8.85;;;14.60;63.20;;;;;;5102105;28;20019;-66
2022/04/03 05:54:04;;;;;;;10.13;8.05;;;14.60;63.20;;;;;;5101828;28;20035;-66
2022/04/03 05:56:31;;;;;;;9.23;7.82;;;14.60;63.20;;;;;;5100972;28;20020;-66
2022/04/03 05:58:57;;;;;;;9.80;8.35;;;14.60;63.20;;;;;;5101911;28;20026;-65
2022/04/03 06:01:23;;;;;;;11.48;9.07;;;14.60;63.20;;;;;;5101851;28;20012;-66
2022/04/03 06:03:49;;;;;;;10.07;7.95;;;14.60;63.10;;;;;;5101798;28;20188;-66
2022/04/03 06:06:15;;;;;;;9.90;8.32;;;14.60;63.10;;;;;;5101784;28;20035;-67
2022/04/03 06:08:41;;;;;;;8.93;7.95;;;14.60;63.10;;;;;;5101621;28;20038;-66
2022/04/03 06:11:07;;;;;;;10.15;8.38;;;14.60;63.10;;;;;;5101709;28;20020;-67
2022/04/03 06:13:33;;;;;;;9.55;7.82;;;14.60;63.10;;;;;;5101423;28;20024;-66
2022/04/03 06:15:58;;;;;;;9.55;8.40;;;14.60;63.10;;;;;;5101528;28;20016;-65
2022/04/03 06:18:24;;;;;;;10.88;7.88;;;14.60;63.00;;;;;;5101448;28;20286;-66
2022/04/03 06:20:51;;;;;;;10.23;8.23;;;14.60;63.10;;;;;;5101294;28;20023;-66
2022/04/03 06:23:21;;;;;;;10.35;8.30;;;14.60;63.00;;;;;;5101428;28;20024;-66
2022/04/03 06:25:52;;;;;;;9.35;8.35;;;14.60;63.00;;;;;;5101400;28;20026;-66
2022/04/03 06:28:17;;;;;;;9.00;8.10;;;14.60;63.00;;;;;;5101302;28;20189;-66
2022/04/03 06:30:43;;;;;;;9.13;7.32;;;14.60;63.00;;;;;;5101153;28;20065;-66
2022/04/03 06:33:09;;;;;;;9.13;7.75;;;14.60;63.00;;;;;;5101090;28;20026;-66
2022/04/03 06:35:35;;;;;;;10.10;8.23;;;14.60;63.00;;;;;;5101113;28;20266;-67
2022/04/03 06:38:01;;;;;;;10.77;7.65;;;14.60;63.00;;;;;;5101067;28;20473;-66
2022/04/03 06:40:27;;;;;;;9.85;8.15;;;14.60;62.90;;;;;;5101043;28;20016;-66
2022/04/03 06:42:53;;;;;;;8.27;7.20;;;14.60;62.90;;;;;;5100785;28;20047;-66
2022/04/03 06:45:19;;;;;;;10.05;8.55;;;14.60;62.90;;;;;;5101164;28;20046;-67
2022/04/03 06:47:45;;;;;;;9.20;7.65;;;14.60;62.90;;;;;;5100896;28;20031;-66
2022/04/03 06:50:12;;;;;;;9.32;8.32;;;14.60;62.90;;;;;;5100727;28;20023;-67
2022/04/03 06:52:38;;;;;;;9.27;8.07;;;14.60;62.90;;;;;;5100738;28;20027;-65
2022/04/03 06:55:05;;;;;;;9.20;7.72;;;14.60;63.00;;;;;;5100702;28;20315;-67
2022/04/03 06:57:31;;;;;;;9.07;7.68;;;14.60;63.00;;;;;;5100664;28;20059;-66
2022/04/03 06:59:57;;;;;;;9.82;8.35;;;14.60;62.90;;;;;;5100761;28;20024;-66
2022/04/03 07:02:23;;;;;;;8.80;7.50;;;14.60;62.90;;;;;;5100600;28;20334;-67
2022/04/03 07:04:48;;;;;;;8.93;7.93;;;14.60;62.70;;;;;;5100697;28;20020;-66
2022/04/03 07:07:22;;;;;;;8.57;7.68;;;14.60;62.70;;;;;;5100233;28;20027;-66
2022/04/03 07:09:48;;;;;;;9.75;8.38;;;14.60;62.60;;;;;;5100766;28;20083;-66
2022/04/03 07:12:14;;;;;;;10.10;8.05;;;14.70;62.60;;;;;;5100342;28;20027;-65
2022/04/03 07:14:40;;;;;;;9.38;7.50;;;14.70;62.60;;;;;;5100636;28;20038;-67
2022/04/03 07:17:06;;;;;;;9.18;7.85;;;14.70;62.50;;;;;;5100446;28;20087;-66
2022/04/03 07:19:32;;;;;;;10.13;8.52;;;14.70;62.40;;;;;;5100569;28;20020;-66
2022/04/03 07:21:58;;;;;;;9.32;8.15;;;14.80;62.40;;;;;;5100334;28;20054;-66
2022/04/03 07:24:25;;;;;;;8.50;7.63;;;14.80;62.30;;;;;;5100260;28;20016;-67
2022/04/03 07:26:51;;;;;;;9.95;8.10;;;14.80;62.30;;;;;;5100837;28;20031;-66
2022/04/03 07:29:17;;;;;;;8.40;7.35;;;14.80;62.20;;;;;;5100313;28;20016;-66
2022/04/03 07:31:43;;;;;;;8.68;7.53;;;14.90;62.10;;;;;;5100165;28;20075;-66
2022/04/03 07:34:09;;;;;;;9.18;7.65;;;14.90;62.10;;;;;;5100138;28;20031;-66
2022/04/03 07:36:34;;;;;;;8.60;7.18;;;14.90;62.00;;;;;;5100146;28;20063;-66
2022/04/03 07:39:00;;;;;;;11.40;8.35;;;14.90;61.90;;;;;;5100137;28;20028;-66
2022/04/03 07:41:26;;;;;;;9.45;7.55;;;14.90;62.00;;;;;;5100127;28;20028;-67
2022/04/03 07:43:51;;;;;;;8.65;7.50;;;14.90;62.00;;;;;;5099874;28;20047;-67
2022/04/03 07:46:17;;;;;;;9.20;7.75;;;14.90;62.00;;;;;;5100127;28;20402;-66
2022/04/03 07:48:44;;;;;;;9.50;7.88;;;14.90;62.00;;;;;;5099964;28;20069;-66
2022/04/03 07:51:11;;;;;;;9.68;7.53;;;14.90;61.90;;;;;;5100005;28;20057;-65
2022/04/03 07:53:37;;;;;;;9.38;7.50;;;14.90;61.80;;;;;;5099884;28;20316;-67
2022/04/03 07:56:05;;;;;;;9.88;8.13;;;14.90;61.80;;;;;;5099859;28;20234;-66
2022/04/03 07:58:39;;;;;;;9.27;7.53;;;15.00;61.80;;;;;;5099987;28;20136;-67
2022/04/03 08:01:05;;;;;;;8.77;7.28;;;15.00;61.70;;;;;;5099973;28;20028;-66
2022/04/03 08:03:31;;;;;;;8.95;7.75;;;15.00;61.70;;;;;;5100115;28;20301;-66
2022/04/03 08:05:57;;;;;;;8.85;7.85;;;15.00;61.70;;;;;;5099894;28;20028;-66
2022/04/03 08:08:22;;;;;;;7.53;6.75;;;15.00;61.70;;;;;;5100036;28;20024;-65
2022/04/03 08:10:48;;;;;;;9.05;7.20;;;15.00;61.60;;;;;;5100021;28;20015;-66
2022/04/03 08:13:14;;;;;;;8.27;7.25;;;15.00;61.60;;;;;;5099709;28;20020;-66
2022/04/03 08:15:41;;;;;;;8.40;7.35;;;15.00;61.60;;;;;;5099758;28;20028;-66
2022/04/03 08:18:07;;;;;;;9.73;8.05;;;15.00;61.60;;;;;;5099714;28;20023;-66
2022/04/03 08:20:32;;;;;;;9.02;7.75;;;15.00;61.60;;;;;;5102853;28;20294;-67
2022/04/03 08:23:01;;;;;;;8.77;7.22;;;15.00;61.50;;;;;;5103642;28;20020;-65
2022/04/03 08:25:27;;;;;;;8.60;7.70;;;15.00;61.50;;;;;;5103690;28;20031;-66
2022/04/03 08:27:54;;;;;;;9.82;7.65;;;15.00;61.50;;;;;;5103400;28;20020;-65
2022/04/03 08:30:24;;;;;;;8.63;6.80;;;15.10;61.40;;;;;;5103383;28;20038;-66
2022/04/03 08:32:50;;;;;;;8.30;7.30;;;15.10;61.40;;;;;;5103235;28;20355;-67
2022/04/03 08:35:17;;;;;;;8.65;7.55;;;15.10;61.50;;;;;;5103270;28;20032;-66
2022/04/03 08:37:44;;;;;;;8.65;7.45;;;15.10;61.50;;;;;;5103128;28;20092;-66
2022/04/03 08:40:11;;;;;;;8.38;7.13;;;15.10;61.50;;;;;;5103222;28;20030;-67
2022/04/03 08:42:38;;;;;;;8.80;6.90;;;15.10;61.40;;;;;;5102899;28;20039;-65
2022/04/03 08:45:07;;;;;;;8.18;7.18;;;15.10;61.30;;;;;;5103079;28;20027;-66
2022/04/03 08:47:42;;;;;;;7.78;6.80;;;15.10;61.40;;;;;;5102986;28;20299;-66
2022/04/03 08:50:08;;;;;;;8.32;7.30;;;15.10;61.30;;;;;;5103049;28;20030;-66
2022/04/03 08:52:36;;;;;;;8.60;7.15;;;15.10;61.30;;;;;;5102761;28;20057;-66
2022/04/03 08:55:04;;;;;;;7.97;6.85;;;15.10;61.30;;;;;;5102876;28;20076;-66
2022/04/03 08:57:30;;;;;;;8.57;7.10;;;15.20;61.30;;;;;;5102889;28;20089;-67
2022/04/03 08:59:56;;;;;;;7.13;6.43;;;15.20;61.10;;;;;;5102825;28;20256;-67
2022/04/03 09:02:22;;;;;;;9.32;7.13;;;15.40;60.60;;;;;;5102686;28;20087;-66
2022/04/03 09:04:48;;;;;;;8.45;6.95;;;15.50;59.80;;;;;;5102682;28;20019;-66
2022/04/03 09:07:18;;;;;;;8.52;6.90;;;15.50;59.70;;;;;;5102593;28;20055;-66
2022/04/03 09:09:44;;;;;;;9.75;7.00;;;15.50;59.80;;;;;;5102503;28;20087;-66
2022/04/03 09:12:17;;;;;;;8.80;7.18;;;15.50;59.40;;;;;;5102470;28;20023;-66
2022/04/03 09:14:49;;;;;;;8.23;6.88;;;15.50;59.40;;;;;;5102502;28;20245;-66
2022/04/03 09:17:49;;;;;;;8.20;6.35;;;15.50;59.30;;;;;;5102521;28;20079;-67
2022/04/03 09:20:20;;;;;;;8.77;7.10;;;15.50;59.00;;;;;;5091462;28;20036;-66
2022/04/03 09:22:53;;;;;;;9.00;7.43;;;15.60;59.40;;;;;;5102390;28;20031;-66
2022/04/03 09:25:30;;;;;;;7.72;6.03;;;15.50;58.90;;;;;;5102413;28;20050;-66
2022/04/03 09:28:03;;;;;;;8.43;6.93;;;15.50;59.30;;;;;;5102277;28;20038;-66
2022/04/03 09:30:30;;;;;;;8.10;7.25;;;15.60;59.20;;;;;;5102182;28;20048;-66
2022/04/03 09:32:57;;;;;;;8.82;7.10;;;15.60;59.20;;;;;;5102061;28;20112;-66
2022/04/03 09:35:50;;;;;;;8.55;6.78;;;15.60;58.90;;;;;;5102039;28;20012;-66
2022/04/03 09:38:16;;;;;;;7.70;6.90;;;15.60;59.00;;;;;;5101899;28;20055;-67
2022/04/03 09:40:44;;;;;;;9.23;6.75;;;15.60;59.00;;;;;;5101895;28;20016;-66
2022/04/03 09:43:21;;;;;;;7.88;6.88;;;15.60;59.10;;;;;;5101843;28;20044;-67
2022/04/03 09:45:52;;;;;;;8.25;7.30;;;15.70;59.10;;;;;;5101934;28;20070;-66
2022/04/03 09:48:21;;;;;;;7.70;6.90;;;15.60;58.90;;;;;;5101920;28;20245;-66
2022/04/03 09:50:54;;;;;;;8.10;6.70;;;15.60;58.90;;;;;;5101813;28;20019;-67
2022/04/03 09:53:20;;;;;;;7.22;6.47;;;15.70;59.20;;;;;;5101677;28;20091;-67
2022/04/03 09:55:46;;;;;;;8.40;6.53;;;15.70;59.20;;;;;;5101720;28;20081;-68
2022/04/03 09:58:12;;;;;;;8.02;7.20;;;15.60;59.00;;;;;;5101528;28;20012;-66
2022/04/03 10:00:40;;;;;;;7.30;6.43;;;15.60;59.00;;;;;;5101581;28;20020;-66
2022/04/03 10:03:09;;;;;;;8.07;7.07;;;15.70;59.50;;;;;;5101613;28;20043;-66
2022/04/03 10:05:34;;;;;;;8.02;6.68;;;15.60;58.90;;;;;;5101720;28;20036;-66
2022/04/03 10:08:01;;;;;;;6.97;6.18;;;15.70;59.20;;;;;;5101331;28;20087;-67
2022/04/03 10:10:28;;;;;;;7.88;6.43;;;15.70;59.00;;;;;;5101425;28;20020;-67
2022/04/03 10:12:55;;;;;;;8.02;6.55;;;15.70;59.00;;;;;;5101189;28;20024;-66
2022/04/03 10:15:22;;;;;;;7.60;6.53;;;15.70;58.90;;;;;;5101307;28;20351;-66
2022/04/03 10:17:47;;;;;;;8.15;6.60;;;15.70;59.00;;;;;;5101223;28;20027;-67
2022/04/03 10:20:14;;;;;;;10.68;7.55;;;15.60;58.80;;;;;;5101107;28;20316;-67
2022/04/03 10:22:42;;;;;;;7.40;6.55;;;15.70;59.00;;;;;;5101173;28;20250;-68
2022/04/03 10:25:13;;;;;;;7.97;6.30;;;15.60;58.80;;;;;;5101184;28;20203;-66
2022/04/03 10:27:42;;;;;;;8.43;6.82;;;15.60;58.80;;;;;;5101121;28;20074;-66
2022/04/03 10:30:10;;;;;;;6.55;5.75;;;15.60;58.90;;;;;;5101053;28;20028;-66
2022/04/03 10:32:37;;;;;;;7.07;6.30;;;15.60;58.80;;;;;;5100913;28;20091;-68
2022/04/03 10:35:10;;;;;;;7.50;6.50;;;15.60;58.90;;;;;;5100850;28;20075;-65
2022/04/03 10:37:41;;;;;;;7.15;6.05;;;15.70;59.20;;;;;;5100915;28;20396;-66
2022/04/03 10:40:17;;;;;;;6.80;6.10;;;15.70;58.80;;;;;;5100818;28;20211;-67
2022/04/03 10:42:52;;;;;;;7.55;6.35;;;15.70;59.00;;;;;;5100070;28;20270;-66
2022/04/03 10:45:24;;;;;;;7.95;6.68;;;15.70;58.80;;;;;;5100816;28;20036;-66
2022/04/03 10:47:51;;;;;;;7.22;6.35;;;15.70;59.10;;;;;;5100729;28;20032;-67
2022/04/03 10:50:18;;;;;;;8.18;6.13;;;15.70;58.90;;;;;;5100657;28;20020;-66
2022/04/03 10:52:44;;;;;;;7.38;6.30;;;15.70;59.10;;;;;;5100483;28;20035;-66
2022/04/03 10:55:15;;;;;;;7.50;6.30;;;15.70;59.10;;;;;;5100541;28;20272;-67
2022/04/03 10:57:42;;;;;;;8.07;6.97;;;15.70;59.10;;;;;;5099227;28;20115;-67
2022/04/03 11:00:16;;;;;;;7.05;6.35;;;15.70;58.90;;;;;;5100576;28;20023;-66
2022/04/03 11:02:44;;;;;;;7.95;6.55;;;15.60;59.10;;;;;;5100354;28;20023;-66
2022/04/03 11:05:36;;;;;;;8.18;6.20;;;15.60;58.60;;;;;;5100478;28;20031;-68
2022/04/03 11:08:02;;;;;;;8.90;6.63;;;15.60;58.60;;;;;;5097258;28;20036;-67
2022/04/03 11:10:52;;;;;;;8.13;6.78;;;15.60;58.60;;;;;;5100452;28;20206;-67
2022/04/03 11:13:38;;;;;;;7.63;6.40;;;15.60;58.70;;;;;;5100245;28;20079;-66
2022/04/03 11:16:09;;;;;;;8.98;7.25;;;15.70;58.80;;;;;;5100272;28;20039;-66
2022/04/03 11:18:49;;;;;;;7.07;5.80;;;15.60;58.80;;;;;;5100221;28;20028;-68
2022/04/03 11:21:21;;;;;;;6.80;5.80;;;15.70;58.90;;;;;;5100241;28;20272;-67
2022/04/03 11:23:50;;;;;;;6.93;6.22;;;15.70;59.00;;;;;;5100190;28;20083;-67
2022/04/03 11:26:16;;;;;;;7.55;6.43;;;15.70;58.20;;;;;;5100133;28;20051;-66
2022/04/03 11:28:43;;;;;;;7.68;6.75;;;15.70;59.10;;;;;;5100033;28;20024;-68
2022/04/03 11:31:09;;;;;;;7.10;5.85;;;15.70;59.20;;;;;;5100154;28;20020;-66
2022/04/03 11:33:36;;;;;;;7.57;6.35;;;15.70;59.20;;;;;;5100423;28;20039;-67
2022/04/03 11:36:13;;;;;;;7.78;6.15;;;15.70;59.20;;;;;;5099983;28;20181;-67
2022/04/03 11:38:50;;;;;;;7.50;6.15;;;15.70;58.90;;;;;;5100079;28;20020;-66
2022/04/03 11:41:20;;;;;;;7.35;6.40;;;15.70;59.10;;;;;;5100059;28;20023;-68
2022/04/03 11:44:00;;;;;;;6.93;6.22;;;15.70;59.00;;;;;;5099758;28;20043;-66
2022/04/03 11:46:40;;;;;;;6.97;6.28;;;15.70;59.00;;;;;;5099928;28;20107;-68
2022/04/03 11:49:18;;;;;;;7.28;6.53;;;15.70;58.90;;;;;;5099997;28;20044;-67
2022/04/03 11:51:46;;;;;;;7.90;6.30;;;15.60;58.70;;;;;;5099810;28;20027;-66
2022/04/03 11:54:14;;;;;;;7.05;6.18;;;15.60;58.80;;;;;;5100681;28;20346;-67
2022/04/03 11:56:40;;;;;;;7.10;5.95;;;15.60;58.70;;;;;;5103892;28;20050;-67
2022/04/03 11:59:08;;;;;;;6.97;5.80;;;15.60;58.60;;;;;;5103917;28;20036;-66
2022/04/03 12:01:36;;;;;;;7.97;6.55;;;15.70;58.90;;;;;;5103794;28;20335;-66
2022/04/03 12:04:08;;;;;;;7.63;6.28;;;15.70;59.10;;;;;;5103686;28;20215;-66
2022/04/03 12:06:35;;;;;;;7.85;6.47;;;15.70;59.00;;;;;;5103698;28;20023;-67
2022/04/03 12:09:15;;;;;;;7.75;5.93;;;15.80;59.00;;;;;;5103717;28;20104;-66
2022/04/03 12:11:50;;;;;;;6.32;5.70;;;15.80;59.10;;;;;;5103623;28;20063;-68
2022/04/03 12:14:22;;;;;;;7.55;6.32;;;15.70;58.90;;;;;;5103633;28;20031;-67
2022/04/03 12:16:56;;;;;;;6.75;5.82;;;15.70;58.70;;;;;;5103758;28;20015;-66
2022/04/03 12:19:22;;;;;;;6.70;5.60;;;15.70;59.10;;;;;;5103486;28;20034;-67
2022/04/03 12:21:49;;;;;;;6.45;5.85;;;15.70;58.80;;;;;;5103426;28;20327;-67
2022/04/03 12:24:26;;;;;;;7.13;6.28;;;15.70;59.00;;;;;;5103414;28;20436;-67
2022/04/03 12:26:57;;;;;;;7.10;5.88;;;15.70;59.20;;;;;;5103391;28;20174;-67
2022/04/03 12:29:25;;;;;;;6.93;5.68;;;15.70;59.10;;;;;;5103245;28;20087;-66
2022/04/03 12:32:03;;;;;;;6.72;5.65;;;15.70;59.20;;;;;;5103245;28;20020;-67
2022/04/03 12:34:30;;;;;;;6.57;5.55;;;15.70;59.00;;;;;;5103202;28;20024;-67
2022/04/03 12:36:58;;;;;;;7.22;5.70;;;15.60;58.90;;;;;;5103230;28;20047;-66
2022/04/03 12:39:29;;;;;;;6.63;6.03;;;15.60;58.70;;;;;;5103088;28;20423;-67
2022/04/03 12:41:55;;;;;;;6.45;5.45;;;15.60;58.90;;;;;;5102954;28;20028;-66
2022/04/03 12:44:21;;;;;;;6.18;5.18;;;15.50;59.10;;;;;;5102804;28;20112;-67
2022/04/03 12:46:49;;;;;;;7.90;5.82;;;15.60;59.10;;;;;;5103038;28;20027;-67
2022/04/03 12:49:16;;;;;;;6.57;5.85;;;15.60;58.90;;;;;;5102783;28;20036;-66
2022/04/03 12:51:49;;;;;;;7.07;6.05;;;15.50;59.20;;;;;;5102850;28;20035;-67
2022/04/03 12:54:15;;;;;;;6.47;5.50;;;15.50;59.10;;;;;;5102740;28;20513;-67
2022/04/03 12:59:38;;;;;;;7.03;5.40;;;15.50;58.80;;;;;;5102658;28;20253;-67
2022/04/03 13:02:07;;;;;;;7.30;5.50;;;15.50;59.50;;;;;;5102660;28;20020;-66
2022/04/03 13:04:33;;;;;;;6.03;5.30;;;15.50;59.30;;;;;;5102208;28;20016;-66
2022/04/03 13:06:59;;;;;;;7.38;6.55;;;15.60;59.10;;;;;;5102508;28;20048;-67
2022/04/03 13:09:25;;;;;;;7.55;6.15;;;15.60;59.30;;;;;;5102474;28;20024;-66
2022/04/03 13:11:52;;;;;;;8.68;5.70;;;15.60;59.40;;;;;;5102442;28;20350;-67
2022/04/03 13:14:24;;;;;;;5.75;5.20;;;15.60;59.40;;;;;;5102400;28;20077;-66
2022/04/03 13:16:52;;;;;;;6.38;5.50;;;15.60;59.50;;;;;;5102418;28;20114;-67
2022/04/03 13:19:21;;;;;;;6.25;5.40;;;15.60;59.40;;;;;;5102328;28;20016;-66